Time;durP1;ratioP1;P1;durP2;ratioP2;P2;SDS_P1;SDS_P2;PMS_P1;PMS_P2;Temp;Humidity;BMP_temperature;BMP_pressure;BME280_temperature;BME280_humidity;BME280_pressure;Samples;Min_cycle;Max_cycle;Signal;HPM_P1;HPM_P2
2021/05/27 00:01:49;;;;;;;6.00;3.60;;;;;;;17.57;60.99;100066.72;5050692;28;20832;-25
2021/05/27 00:04:15;;;;;;;6.45;3.40;;;;;;;17.68;60.43;100057.56;5050179;28;20089;-25
2021/05/27 00:06:41;;;;;;;7.35;3.50;;;;;;;17.63;60.86;100062.94;5050605;28;20094;-25
2021/05/27 00:09:06;;;;;;;5.35;3.33;;;;;;;17.43;61.52;100049.41;5050553;28;20401;-25
2021/05/27 00:11:32;;;;;;;9.48;3.30;;;;;;;16.86;63.25;100045.66;5050652;28;20390;-24
2021/05/27 00:13:58;;;;;;;14.48;4.18;;;;;;;16.83;63.71;100046.97;5050412;28;20037;-25
2021/05/27 00:16:23;;;;;;;6.55;4.00;;;;;;;16.92;63.34;100047.31;5050136;28;20033;-25
2021/05/27 00:18:51;;;;;;;7.35;3.90;;;;;;;16.84;63.61;100051.28;5050258;28;20032;-25
2021/05/27 00:21:17;;;;;;;7.65;3.95;;;;;;;16.66;64.09;100036.34;5050440;28;20116;-25
2021/05/27 00:23:43;;;;;;;6.72;4.22;;;;;;;16.53;64.28;100025.19;5050245;28;20050;-25
2021/05/27 00:26:08;;;;;;;7.43;4.30;;;;;;;16.53;64.49;100025.19;5050304;28;20037;-25
2021/05/27 00:28:34;;;;;;;7.50;4.85;;;;;;;16.21;66.15;100026.88;5050269;28;20242;-24
2021/05/27 00:30:59;;;;;;;6.38;5.30;;;;;;;15.90;67.71;100025.81;5049909;28;20029;-25
2021/05/27 00:33:25;;;;;;;9.43;4.93;;;;;;;16.26;67.50;100044.94;5049898;28;20028;-25
2021/05/27 00:35:50;;;;;;;7.07;5.00;;;;;;;16.65;65.49;100033.91;5050069;28;20025;-24
2021/05/27 00:38:16;;;;;;;5.65;4.47;;;;;;;16.18;66.18;100013.09;5050283;28;20032;-25
2021/05/27 00:40:41;;;;;;;5.57;4.40;;;;;;;16.13;67.13;100032.72;5050495;28;20036;-25
2021/05/27 00:43:07;;;;;;;6.88;5.00;;;;;;;16.16;67.18;100021.47;5050300;28;20033;-25
2021/05/27 00:45:33;;;;;;;6.55;5.65;;;;;;;15.84;68.51;100016.88;5050209;28;20056;-25
2021/05/27 00:47:59;;;;;;;8.63;5.53;;;;;;;16.05;68.46;100009.78;5049784;28;20405;-25
2021/05/27 00:50:24;;;;;;;7.28;5.93;;;;;;;15.84;68.52;100008.81;5049260;28;20041;-25
2021/05/27 00:52:51;;;;;;;7.38;6.10;;;;;;;15.89;68.37;100010.72;5050183;28;20068;-25
2021/05/27 00:55:18;;;;;;;9.15;5.97;;;;;;;16.13;68.72;100005.81;5049861;28;20821;-25
2021/05/27 00:57:43;;;;;;;8.25;5.75;;;;;;;16.20;67.93;100008.28;5048671;28;20028;-24
2021/05/27 01:00:14;;;;;;;10.70;7.43;;;;;;;16.24;67.60;100001.31;5049431;28;20032;-25
2021/05/27 01:02:39;;;;;;;8.07;6.55;;;;;;;16.35;68.16;100008.41;5049389;28;20025;-25
2021/05/27 01:05:06;;;;;;;8.18;5.88;;;;;;;16.78;66.07;99987.66;5048402;28;20094;-25
2021/05/27 01:07:32;;;;;;;9.60;6.60;;;;;;;16.96;65.82;100001.78;5032017;28;20021;-25
2021/05/27 01:09:57;;;;;;;9.88;7.10;;;;;;;16.70;66.93;100004.31;5048396;28;20072;-24
2021/05/27 01:12:23;;;;;;;10.52;7.28;;;;;;;16.50;67.42;99996.94;5047900;28;20037;-25
2021/05/27 01:17:35;;;;;;;10.57;7.32;;;;;;;15.72;70.39;100001.94;5049259;28;20039;-25
2021/05/27 01:20:01;;;;;;;9.70;7.10;;;;;;;15.92;69.77;100012.91;5049651;28;20118;-25
2021/05/27 01:22:26;;;;;;;13.27;7.10;;;;;;;15.71;70.44;99992.22;5048791;28;20075;-25
2021/05/27 01:24:52;;;;;;;11.68;7.72;;;;;;;15.90;69.67;99990.03;5049044;28;20079;-25
2021/05/27 01:27:17;;;;;;;9.07;7.63;;;;;;;15.86;69.62;99984.34;5049014;28;20528;-25
2021/05/27 01:29:43;;;;;;;9.95;7.30;;;;;;;15.53;70.72;99971.91;5048860;28;20415;-25
2021/05/27 01:32:09;;;;;;;10.63;8.10;;;;;;;16.08;69.11;99981.59;5031505;28;20136;-25
2021/05/27 01:34:35;;;;;;;9.68;7.43;;;;;;;15.99;69.53;99975.03;5048879;28;20069;-25
2021/05/27 01:37:00;;;;;;;11.43;7.32;;;;;;;16.37;68.28;99987.44;5047690;28;20100;-24
2021/05/27 01:39:26;;;;;;;9.32;7.63;;;;;;;16.73;67.34;99984.13;5048852;28;20570;-25
2021/05/27 01:41:51;;;;;;;9.70;7.70;;;;;;;17.24;64.78;99987.91;5048914;28;20135;-25
2021/05/27 01:44:17;;;;;;;9.35;7.47;;;;;;;17.42;63.87;99983.88;5048436;28;20037;-26
2021/05/27 01:46:43;;;;;;;9.07;7.13;;;;;;;17.40;64.12;99990.63;5049140;28;20914;-24
2021/05/27 01:49:09;;;;;;;9.13;7.03;;;;;;;16.83;65.61;99986.91;5048559;28;20037;-25
2021/05/27 01:51:34;;;;;;;8.15;6.97;;;;;;;16.87;65.04;99967.25;5048378;28;20084;-24
2021/05/27 01:54:00;;;;;;;11.15;7.50;;;;;;;16.99;64.93;99985.09;5048576;28;20095;-24
2021/05/27 01:56:25;;;;;;;10.25;7.72;;;;;;;17.15;64.64;99984.09;5046900;28;20064;-25
2021/05/27 01:58:51;;;;;;;8.77;6.97;;;;;;;17.51;63.75;99992.28;5048300;28;20029;-25
2021/05/27 02:01:16;;;;;;;9.38;7.65;;;;;;;17.01;64.51;99993.72;5048486;28;20040;-25
2021/05/27 02:03:42;;;;;;;9.20;7.80;;;;;;;16.24;66.39;99969.03;5048473;28;20071;-25
2021/05/27 02:06:08;;;;;;;9.40;7.60;;;;;;;15.83;68.73;99998.28;5048291;28;20124;-24
2021/05/27 02:08:33;;;;;;;8.80;7.72;;;;;;;15.66;69.28;100007.25;5047208;28;20029;-25
2021/05/27 02:10:59;;;;;;;9.00;7.93;;;;;;;15.97;68.20;99990.63;5048386;28;20040;-25
2021/05/27 02:13:24;;;;;;;9.95;7.65;;;;;;;16.30;66.97;99975.25;5047956;28;20057;-25
2021/05/27 02:15:50;;;;;;;8.82;7.10;;;;;;;15.77;68.78;99980.50;5047879;28;20488;-25
2021/05/27 02:18:15;;;;;;;7.53;6.38;;;;;;;15.39;69.61;99976.88;5048322;28;20029;-26
2021/05/27 02:20:41;;;;;;;9.00;6.95;;;;;;;15.43;69.20;99969.94;5046939;28;20111;-25
2021/05/27 02:23:06;;;;;;;9.82;6.65;;;;;;;15.41;69.68;99993.56;5048092;28;20032;-25
2021/05/27 02:25:32;;;;;;;8.10;6.85;;;;;;;15.43;70.01;99980.69;5047866;28;20491;-24
2021/05/27 02:27:57;;;;;;;8.30;6.53;;;;;;;15.70;68.75;99985.25;5047702;28;20111;-25
2021/05/27 02:30:24;;;;;;;9.98;6.55;;;;;;;15.70;68.85;99985.25;5047505;28;20033;-25
2021/05/27 02:32:49;;;;;;;8.75;6.28;;;;;;;15.92;69.07;99979.84;5046573;28;20081;-25
2021/05/27 02:35:15;;;;;;;8.23;6.25;;;;;;;15.65;68.67;99965.31;5047589;28;20444;-24
2021/05/27 02:37:41;;;;;;;8.23;6.03;;;;;;;15.46;69.65;99980.16;5047795;28;20088;-25
2021/05/27 02:40:07;;;;;;;6.85;6.03;;;;;;;15.41;69.81;99982.81;5047539;28;20036;-25
2021/05/27 02:42:32;;;;;;;10.15;7.10;;;;;;;15.47;69.69;99987.97;5047419;28;20104;-25
2021/05/27 02:44:58;;;;;;;9.05;7.45;;;;;;;15.37;69.97;99997.81;5047519;28;20048;-25
2021/05/27 02:47:23;;;;;;;10.23;7.25;;;;;;;15.45;69.52;99994.69;5047849;28;20025;-25
2021/05/27 02:49:49;;;;;;;11.80;7.13;;;;;;;15.79;68.56;100005.25;5047579;28;20100;-25
2021/05/27 02:52:14;;;;;;;12.15;7.63;;;;;;;16.11;67.23;99985.63;5047050;28;20163;-25
2021/05/27 02:54:40;;;;;;;10.60;6.65;;;;;;;16.15;69.35;99998.31;5047615;28;20040;-25
2021/05/27 02:57:06;;;;;;;7.95;6.35;;;;;;;15.75;68.09;99978.09;5047194;28;20032;-25
2021/05/27 02:59:31;;;;;;;7.95;7.07;;;;;;;15.78;68.94;99995.56;5047753;28;20021;-25
2021/05/27 03:01:57;;;;;;;7.82;6.15;;;;;;;15.86;68.40;100016.63;5047463;28;20067;-24
2021/05/27 03:04:22;;;;;;;7.93;6.55;;;;;;;16.11;67.24;99999.09;5047235;28;20115;-24
2021/05/27 03:06:48;;;;;;;10.32;6.82;;;;;;;16.42;66.32;99998.22;5047213;28;20140;-25
2021/05/27 03:09:13;;;;;;;14.13;6.32;;;;;;;16.46;65.84;99993.13;5045934;28;20028;-24
2021/05/27 03:11:39;;;;;;;9.32;6.70;;;;;;;16.31;66.63;99977.69;5046813;28;20037;-25
2021/05/27 03:14:05;;;;;;;10.82;7.10;;;;;;;16.47;66.06;99987.50;5047161;28;20500;-25
2021/05/27 03:16:30;;;;;;;8.68;6.90;;;;;;;16.56;65.90;99978.94;5046974;28;20419;-25
2021/05/27 03:18:56;;;;;;;9.15;6.97;;;;;;;16.77;66.12;99993.31;5047198;28;20079;-25
2021/05/27 03:21:21;;;;;;;11.43;6.32;;;;;;;16.64;65.61;99983.81;5047208;28;20163;-25
2021/05/27 03:23:47;;;;;;;9.38;7.40;;;;;;;16.94;64.67;99990.44;5046022;28;20040;-24
2021/05/27 03:26:14;;;;;;;8.98;7.05;;;;;;;16.94;64.67;99982.38;5046477;28;20131;-25
2021/05/27 03:28:40;;;;;;;8.45;7.03;;;;;;;16.48;66.45;99983.72;5047079;28;20129;-24
2021/05/27 03:31:06;;;;;;;9.90;7.30;;;;;;;16.26;67.17;99988.41;5046951;28;20456;-24
2021/05/27 03:33:31;;;;;;;12.68;7.70;;;;;;;16.22;67.51;99971.16;5048408;28;20025;-25
2021/05/27 03:35:57;;;;;;;10.35;7.38;;;;;;;16.41;67.14;99975.09;5051124;28;20037;-29
2021/05/27 03:38:22;;;;;;;11.48;8.05;;;;;;;16.75;66.31;99995.44;5051098;28;20135;-25
2021/05/27 03:40:48;;;;;;;13.00;8.50;;;;;;;16.97;65.77;100001.50;5050915;28;20094;-24
2021/05/27 03:43:13;;;;;;;13.18;9.10;;;;;;;17.14;64.91;99997.81;5051351;28;20037;-24
2021/05/27 03:45:39;;;;;;;15.60;10.18;;;;;;;17.29;64.18;99983.59;5050874;28;20025;-24
2021/05/27 03:48:05;;;;;;;11.65;9.90;;;;;;;17.10;64.70;99975.16;5050907;28;20577;-25
2021/05/27 03:50:31;;;;;;;29.33;10.85;;;;;;;16.82;65.75;99986.09;5050575;28;20060;-24
2021/05/27 03:52:58;;;;;;;9.82;8.50;;;;;;;16.58;66.40;99979.47;5050958;28;20470;-25
2021/05/27 03:55:23;;;;;;;11.98;8.80;;;;;;;16.44;67.12;99979.94;5050641;28;20774;-25
2021/05/27 03:57:49;;;;;;;12.13;8.35;;;;;;;16.10;68.63;99978.63;5050803;28;20029;-25
2021/05/27 04:03:05;;;;;;;11.00;8.93;;;;;;;16.56;67.40;99976.25;5051050;28;20035;-24
2021/05/27 04:08:15;;;;;;;12.65;9.57;;;;;;;16.51;68.31;99990.50;5050750;28;20105;-25
2021/05/27 04:10:40;;;;;;;12.57;9.27;;;;;;;16.59;68.78;99978.41;5050541;28;20522;-25
2021/05/27 04:13:06;;;;;;;19.95;13.57;;;;;;;16.59;68.59;99987.31;5050606;28;20024;-25
2021/05/27 04:15:33;;;;;;;19.52;15.05;;;;;;;16.77;68.28;99972.56;5050512;28;20032;-25
2021/05/27 04:18:00;;;;;;;15.18;13.60;;;;;;;16.99;67.47;99982.41;5050343;28;20064;-25
2021/05/27 04:20:32;;;;;;;13.73;9.65;;;;;;;17.47;65.62;99991.19;5050048;28;20040;-25
2021/05/27 04:22:58;;;;;;;10.57;8.55;;;;;;;17.19;66.53;99989.75;5050285;28;20036;-25
2021/05/27 04:25:25;;;;;;;14.00;9.00;;;;;;;17.49;65.74;99994.44;5050470;28;20037;-25
2021/05/27 04:27:51;;;;;;;12.30;8.27;;;;;;;17.40;65.88;99980.63;5050421;28;20876;-24
2021/05/27 04:30:18;;;;;;;10.70;8.20;;;;;;;17.63;65.41;99989.31;5050023;28;20102;-25
2021/05/27 04:32:53;;;;;;;10.90;7.87;;;;;;;17.90;64.52;99999.91;5050112;28;20855;-24
2021/05/27 04:35:19;;;;;;;12.40;7.78;;;;;;;17.94;64.41;99995.59;5049974;28;20248;-25
2021/05/27 04:37:44;;;;;;;10.00;7.63;;;;;;;17.89;64.26;99990.19;5050415;28;20029;-25
2021/05/27 04:40:16;;;;;;;10.07;7.53;;;;;;;18.00;64.07;99983.72;5050260;28;20455;-25
2021/05/27 04:42:42;;;;;;;11.43;8.32;;;;;;;18.45;63.04;99984.75;5049941;28;20029;-24
2021/05/27 04:45:08;;;;;;;13.48;8.57;;;;;;;18.04;64.43;100002.84;5048440;28;20504;-25
2021/05/27 04:47:33;;;;;;;14.10;8.65;;;;;;;18.26;63.44;100010.69;5049960;28;20147;-25
2021/05/27 04:49:59;;;;;;;10.93;7.72;;;;;;;17.81;64.01;99996.09;5049878;28;20060;-25
2021/05/27 04:52:25;;;;;;;11.20;7.55;;;;;;;17.68;64.58;100003.63;5048038;28;20072;-24
2021/05/27 04:54:50;;;;;;;9.85;8.10;;;;;;;17.77;64.27;100006.59;5049929;28;20489;-25
2021/05/27 04:57:16;;;;;;;9.48;7.43;;;;;;;18.06;63.94;100006.94;5049657;28;20025;-24
2021/05/27 04:59:41;;;;;;;10.95;7.53;;;;;;;18.15;63.76;100001.78;5049828;28;20454;-24
2021/05/27 05:02:07;;;;;;;9.80;7.28;;;;;;;18.54;63.02;100008.50;5048150;28;20033;-25
2021/05/27 05:04:32;;;;;;;10.23;7.15;;;;;;;18.68;62.10;100004.16;5049044;28;20037;-25
2021/05/27 05:06:58;;;;;;;14.27;7.55;;;;;;;18.70;62.39;99998.47;5049522;28;20036;-26
2021/05/27 05:09:23;;;;;;;9.02;7.57;;;;;;;19.06;61.34;99994.59;5049510;28;20481;-25
2021/05/27 05:11:49;;;;;;;9.80;7.70;;;;;;;19.32;60.16;99994.47;5049460;28;20848;-24
2021/05/27 05:14:14;;;;;;;9.50;7.88;;;;;;;19.31;60.26;100005.53;5049075;28;20405;-25
2021/05/27 05:16:40;;;;;;;10.13;7.18;;;;;;;19.22;60.36;100003.41;5049089;28;20782;-25
2021/05/27 05:19:05;;;;;;;9.80;7.35;;;;;;;19.33;59.95;99995.25;5049505;28;20496;-24
2021/05/27 05:21:31;;;;;;;11.98;7.45;;;;;;;19.26;59.81;100004.47;5049216;28;20492;-25
2021/05/27 05:23:56;;;;;;;11.38;8.73;;;;;;;18.34;62.84;99999.34;5047986;28;20032;-24
2021/05/27 05:26:22;;;;;;;9.80;8.20;;;;;;;18.18;64.39;99997.72;5049087;28;20452;-25
2021/05/27 05:28:48;;;;;;;13.02;7.68;;;;;;;18.38;64.19;100002.31;5049056;28;20056;-25
2021/05/27 05:31:13;;;;;;;10.13;7.07;;;;;;;18.22;63.84;100013.09;5048850;28;20542;-25
2021/05/27 05:33:39;;;;;;;9.82;7.45;;;;;;;18.56;62.76;100020.63;5049149;28;20037;-24
2021/05/27 05:36:04;;;;;;;8.60;7.28;;;;;;;19.22;61.31;100021.53;5031130;28;20029;-24
2021/05/27 05:38:30;;;;;;;8.85;7.70;;;;;;;19.43;59.39;100008.72;5048748;28;20115;-25
2021/05/27 05:40:55;;;;;;;8.05;6.80;;;;;;;19.73;59.16;100009.66;5048631;28;20464;-24
2021/05/27 05:43:21;;;;;;;9.40;7.18;;;;;;;19.57;59.45;100020.53;5048781;28;20449;-26
2021/05/27 05:45:46;;;;;;;9.93;6.85;;;;;;;19.01;60.78;100037.03;5048833;28;20107;-24
2021/05/27 05:48:12;;;;;;;19.17;12.38;;;;;;;18.87;60.83;100023.28;5048467;28;20490;-25
2021/05/27 05:50:52;;;;;;;16.65;10.85;;;;;;;18.77;61.60;100037.59;5048413;28;20049;-24
2021/05/27 05:53:22;;;;;;;29.10;17.63;;;;;;;19.13;61.58;100021.31;5048633;28;20033;-25
2021/05/27 05:55:48;;;;;;;23.92;15.32;;;;;;;19.17;60.68;100013.47;5048106;28;20481;-25
2021/05/27 05:58:14;;;;;;;11.80;8.45;;;;;;;19.58;59.60;100030.28;5048179;28;20025;-25
2021/05/27 06:00:39;;;;;;;66.68;11.43;;;;;;;19.93;58.37;100028.47;5048621;28;20029;-24
2021/05/27 06:03:05;;;;;;;10.32;7.82;;;;;;;19.84;58.22;100014.72;5048264;28;20520;-25
2021/05/27 06:05:34;;;;;;;11.75;8.27;;;;;;;19.92;58.33;100007.09;5048339;28;20144;-25
2021/05/27 06:07:59;;;;;;;8.27;7.07;;;;;;;19.62;59.27;100003.50;5046905;28;20401;-24
2021/05/27 06:10:25;;;;;;;9.40;7.30;;;;;;;19.41;60.00;100009.03;5047974;28;20029;-25
2021/05/27 06:12:51;;;;;;;9.77;6.65;;;;;;;19.06;61.48;100008.09;5048246;28;20029;-25
2021/05/27 06:15:21;;;;;;;9.98;7.60;;;;;;;19.27;60.91;100014.22;5048281;28;20041;-25
2021/05/27 06:17:51;;;;;;;10.55;6.63;;;;;;;19.44;60.06;100015.75;5048216;28;20029;-25
2021/05/27 06:20:18;;;;;;;10.25;7.38;;;;;;;19.13;60.63;100018.63;5046599;28;20033;-25
2021/05/27 06:22:44;;;;;;;11.10;7.38;;;;;;;19.89;59.56;100027.41;5047885;28;20589;-24
2021/05/27 06:25:10;;;;;;;11.75;7.22;;;;;;;20.37;58.50;100037.56;5047854;28;20115;-25
2021/05/27 06:27:35;;;;;;;15.00;9.05;;;;;;;20.86;56.87;100033.84;5047845;28;20468;-27
2021/05/27 06:30:01;;;;;;;8.20;6.20;;;;;;;20.43;57.52;100023.72;5047912;28;20056;-25
2021/05/27 06:32:29;;;;;;;7.35;6.18;;;;;;;20.39;57.08;100019.13;5047791;28;20040;-25
2021/05/27 06:34:54;;;;;;;10.55;6.10;;;;;;;19.86;58.62;100019.88;5030496;28;20041;-25
2021/05/27 06:37:20;;;;;;;8.57;6.18;;;;;;;19.84;59.88;100032.88;5047914;28;20041;-25
2021/05/27 06:39:45;;;;;;;9.07;6.30;;;;;;;20.37;57.96;100022.16;5047491;28;20293;-25
2021/05/27 06:42:13;;;;;;;10.65;8.20;;;;;;;20.71;57.96;100024.00;5047052;28;20033;-27
2021/05/27 06:44:38;;;;;;;16.27;10.80;;;;;;;21.18;56.86;100035.13;5047467;28;20033;-25
2021/05/27 06:47:04;;;;;;;11.00;7.22;;;;;;;21.14;56.43;100034.91;5047497;28;20120;-27
2021/05/27 06:49:29;;;;;;;12.20;8.40;;;;;;;21.18;56.07;100041.34;5047973;28;20102;-25
2021/05/27 06:51:58;;;;;;;8.10;5.40;;;;;;;20.74;56.91;100042.41;5047469;28;20072;-25
2021/05/27 06:54:26;;;;;;;9.15;5.95;;;;;;;21.11;56.10;100038.19;5047292;28;20044;-25
2021/05/27 06:56:54;;;;;;;10.52;4.97;;;;;;;20.59;56.92;100040.66;5047154;28;20093;-25
2021/05/27 06:59:20;;;;;;;9.18;5.03;;;;;;;20.45;57.24;100040.50;5047361;28;20028;-25
2021/05/27 07:01:46;;;;;;;9.50;5.43;;;;;;;21.08;56.82;100030.63;5047247;28;20494;-25
2021/05/27 07:04:11;;;;;;;6.95;4.80;;;;;;;20.41;57.63;100031.31;5047264;28;20102;-24
2021/05/27 07:06:37;;;;;;;21.58;6.10;;;;;;;20.52;59.02;100040.16;5047338;28;20155;-24
2021/05/27 07:09:03;;;;;;;6.30;4.50;;;;;;;20.67;56.41;100014.84;5046314;28;20114;-25
2021/05/27 07:11:29;;;;;;;7.22;4.75;;;;;;;21.02;55.70;100026.38;5047071;28;20036;-24
2021/05/27 07:13:54;;;;;;;7.57;5.40;;;;;;;21.28;55.67;100022.25;5047121;28;20421;-25
2021/05/27 07:16:20;;;;;;;7.80;4.80;;;;;;;21.89;53.74;100027.94;5046953;28;20383;-24
2021/05/27 07:18:45;;;;;;;7.22;4.65;;;;;;;22.13;51.54;100043.28;5047141;28;20033;-24
2021/05/27 07:21:11;;;;;;;10.93;6.60;;;;;;;21.55;53.96;100042.53;5047005;28;20052;-25
2021/05/27 07:23:36;;;;;;;7.25;4.55;;;;;;;21.74;54.32;100041.72;5046992;28;20029;-25
2021/05/27 07:26:03;;;;;;;9.10;4.90;;;;;;;21.40;54.94;100010.16;5046861;28;20067;-25
2021/05/27 07:28:29;;;;;;;7.07;4.55;;;;;;;21.52;54.90;100018.72;5047002;28;20024;-25
2021/05/27 07:30:54;;;;;;;8.32;4.57;;;;;;;21.51;54.63;100033.34;5047261;28;20035;-24
2021/05/27 07:33:20;;;;;;;6.07;4.10;;;;;;;21.19;54.09;100039.47;5045916;28;20033;-25
2021/05/27 07:35:46;;;;;;;8.77;4.53;;;;;;;21.22;54.90;100034.25;5047086;28;20035;-25
2021/05/27 07:38:12;;;;;;;6.25;4.55;;;;;;;21.58;54.26;100033.03;5046622;28;20504;-25
2021/05/27 07:40:37;;;;;;;9.00;5.22;;;;;;;22.01;54.18;100041.06;5046898;28;20491;-26
2021/05/27 07:43:03;;;;;;;7.53;4.50;;;;;;;22.02;53.72;100038.03;5047097;28;20104;-25
2021/05/27 07:45:29;;;;;;;7.35;5.25;;;;;;;21.67;54.50;100029.31;5047060;28;20087;-24
2021/05/27 07:47:54;;;;;;;36.55;7.28;;;;;;;21.62;56.21;100043.00;5046994;28;20033;-24
2021/05/27 07:50:22;;;;;;;24.52;6.05;;;;;;;21.31;56.62;100034.44;5046325;28;20778;-25
2021/05/27 07:52:52;;;;;;;26.38;6.47;;;;;;;21.62;56.25;100034.84;5047019;28;20037;-24
2021/05/27 07:55:18;;;;;;;9.98;5.18;;;;;;;21.59;56.16;100023.75;5046940;28;20071;-26
2021/05/27 07:57:43;;;;;;;8.95;5.63;;;;;;;21.85;55.64;100030.44;5047043;28;20430;-24
2021/05/27 08:00:10;;;;;;;7.60;5.43;;;;;;;21.83;55.37;100029.13;5046849;28;20091;-25
2021/05/27 08:02:35;;;;;;;7.80;5.53;;;;;;;21.89;54.92;100027.13;5046634;28;20025;-24
2021/05/27 08:05:01;;;;;;;9.40;5.82;;;;;;;21.81;55.37;100023.16;5046569;28;20036;-24
2021/05/27 08:07:26;;;;;;;9.77;5.65;;;;;;;21.89;55.68;100022.50;5046502;28;20055;-25
2021/05/27 08:09:52;;;;;;;8.32;5.93;;;;;;;21.91;55.34;100033.06;5046425;28;20064;-25
2021/05/27 08:12:17;;;;;;;10.20;5.65;;;;;;;21.58;56.75;100033.81;5046368;28;20031;-25
2021/05/27 08:14:45;;;;;;;9.70;6.35;;;;;;;20.86;59.09;100017.59;5046584;28;20444;-24
2021/05/27 08:17:11;;;;;;;13.50;6.73;;;;;;;20.72;60.68;100022.91;5046595;28;20040;-24
2021/05/27 08:19:36;;;;;;;40.22;8.27;;;;;;;20.74;61.00;100026.16;5047877;28;20095;-24
2021/05/27 08:22:02;;;;;;;22.80;7.03;;;;;;;20.83;60.40;100021.69;5049922;28;20499;-24
2021/05/27 08:24:27;;;;;;;22.88;7.55;;;;;;;21.40;59.45;100021.03;5050527;28;20053;-24
2021/05/27 08:26:53;;;;;;;11.23;6.85;;;;;;;20.75;62.41;100016.91;5050532;28;20037;-25
2021/05/27 08:29:19;;;;;;;16.70;7.75;;;;;;;20.81;61.29;100015.75;5050263;28;20571;-25
2021/05/27 08:31:44;;;;;;;12.52;7.18;;;;;;;20.62;61.42;100002.16;5050444;28;20400;-25
2021/05/27 08:34:11;;;;;;;10.02;7.47;;;;;;;20.46;62.14;100004.19;5049817;28;20033;-25
2021/05/27 08:36:37;;;;;;;11.07;7.05;;;;;;;20.49;63.09;100024.47;5049868;28;20045;-25
2021/05/27 08:39:04;;;;;;;8.50;7.30;;;;;;;20.94;60.99;100030.50;5050209;28;20108;-26
2021/05/27 08:41:29;;;;;;;10.30;7.30;;;;;;;21.23;59.94;100027.75;5049870;28;20029;-25
2021/05/27 08:43:55;;;;;;;10.10;7.03;;;;;;;21.35;59.39;100031.91;5050069;28;20029;-25
2021/05/27 08:46:23;;;;;;;11.95;7.10;;;;;;;21.24;59.64;100029.34;5049625;28;20035;-25
2021/05/27 08:48:49;;;;;;;9.88;7.32;;;;;;;21.15;59.41;100022.16;5050014;28;20033;-24
2021/05/27 08:51:15;;;;;;;10.35;7.45;;;;;;;20.90;61.35;100024.06;5049663;28;20040;-24
2021/05/27 08:53:41;;;;;;;9.90;7.68;;;;;;;20.83;61.76;100024.41;5049993;28;20060;-24
2021/05/27 08:56:06;;;;;;;11.38;7.75;;;;;;;20.66;62.42;100029.50;5049861;28;20416;-24
2021/05/27 08:58:32;;;;;;;10.88;7.55;;;;;;;20.52;62.60;100017.69;5049613;28;20051;-25
2021/05/27 09:00:57;;;;;;;9.95;8.30;;;;;;;21.08;60.67;100011.66;5049597;28;20068;-25
2021/05/27 09:03:24;;;;;;;16.50;8.05;;;;;;;21.24;60.26;100006.84;5049410;28;20110;-24
2021/05/27 09:05:59;;;;;;;10.40;7.32;;;;;;;21.19;59.97;99998.78;5047932;28;20555;-24
2021/05/27 09:08:33;;;;;;;7.78;6.57;;;;;;;21.43;59.29;100009.59;5049486;28;20116;-25
2021/05/27 09:11:09;;;;;;;8.73;6.55;;;;;;;21.54;58.18;100011.09;5048966;28;20072;-24
2021/05/27 09:13:38;;;;;;;10.82;7.47;;;;;;;21.67;58.50;100009.53;5049452;28;20036;-24
2021/05/27 09:16:11;;;;;;;11.48;7.07;;;;;;;21.34;58.52;100003.19;5048991;28;20029;-24
2021/05/27 09:18:38;;;;;;;20.27;7.60;;;;;;;21.14;60.24;99994.22;5049206;28;20448;-25
2021/05/27 09:21:05;;;;;;;9.93;6.78;;;;;;;21.05;61.84;99998.69;5049293;28;20036;-25
2021/05/27 09:23:31;;;;;;;12.57;7.18;;;;;;;21.28;61.22;100014.09;5049304;28;20029;-24
2021/05/27 09:26:13;;;;;;;9.38;6.45;;;;;;;21.28;60.33;100027.66;5049162;28;20048;-25
2021/05/27 09:28:39;;;;;;;10.35;7.00;;;;;;;21.27;61.18;100017.94;5047564;28;20025;-25
2021/05/27 09:31:06;;;;;;;13.27;8.27;;;;;;;21.22;61.72;100004.41;5048047;28;20055;-24
2021/05/27 09:33:44;;;;;;;10.57;8.10;;;;;;;21.52;63.90;100029.56;5049258;28;20035;-25
2021/05/27 09:36:20;;;;;;;9.60;7.18;;;;;;;21.35;60.92;100019.19;5048907;28;20263;-28
2021/05/27 09:38:52;;;;;;;9.98;6.38;;;;;;;21.75;58.66;100008.06;5048997;28;20036;-25
2021/05/27 09:41:24;;;;;;;11.77;7.13;;;;;;;21.94;59.11;100008.03;5049185;28;20036;-24
2021/05/27 09:43:52;;;;;;;9.32;6.88;;;;;;;22.03;57.94;100011.69;5048910;28;20021;-24
2021/05/27 09:46:18;;;;;;;14.43;7.05;;;;;;;22.36;58.45;100015.22;5048562;28;20095;-24
2021/05/27 09:48:46;;;;;;;9.50;6.25;;;;;;;22.29;55.76;99997.72;5048838;28;20039;-25
2021/05/27 09:51:26;;;;;;;10.57;6.30;;;;;;;22.23;58.28;100007.81;5048659;28;20072;-24
2021/05/27 09:53:52;;;;;;;8.95;6.32;;;;;;;22.63;57.81;100011.75;5047438;28;20021;-24
2021/05/27 09:56:33;;;;;;;8.25;6.63;;;;;;;22.76;54.84;100018.31;5048336;28;20080;-24
2021/05/27 09:58:59;;;;;;;7.63;6.10;;;;;;;22.98;57.36;100020.31;5048659;28;20055;-26
2021/05/27 10:01:24;;;;;;;8.18;5.60;;;;;;;23.19;55.17;100015.31;5048564;28;20032;-24
2021/05/27 10:03:50;;;;;;;9.63;5.85;;;;;;;22.75;57.61;100021.34;5048686;28;20569;-24
2021/05/27 10:06:15;;;;;;;6.07;4.75;;;;;;;21.80;57.16;100024.25;5047796;28;20508;-24
2021/05/27 10:08:55;;;;;;;8.93;6.00;;;;;;;22.22;55.97;100011.66;5048571;28;20036;-24
2021/05/27 10:11:21;;;;;;;6.93;5.38;;;;;;;22.16;59.75;100021.00;5048322;28;20036;-24
2021/05/27 10:13:47;;;;;;;10.07;5.20;;;;;;;21.87;57.37;100019.28;5048102;28;20056;-24
2021/05/27 10:16:17;;;;;;;6.28;5.20;;;;;;;22.07;58.14;100004.56;5048050;28;20040;-24
2021/05/27 10:18:42;;;;;;;7.07;5.75;;;;;;;22.38;55.05;100001.38;5048032;28;20123;-24
2021/05/27 10:21:08;;;;;;;7.05;5.35;;;;;;;22.42;55.05;100007.81;5048082;28;20501;-25
2021/05/27 10:23:34;;;;;;;8.20;5.68;;;;;;;22.81;54.62;99988.31;5048094;28;20025;-24
2021/05/27 10:25:59;;;;;;;7.68;5.50;;;;;;;22.37;54.09;99975.28;5047948;28;20404;-24
2021/05/27 10:28:25;;;;;;;7.70;5.80;;;;;;;22.64;54.03;99979.97;5047844;28;20086;-24
2021/05/27 10:30:51;;;;;;;7.45;5.25;;;;;;;22.78;52.49;99988.09;5030078;28;20025;-25
2021/05/27 10:33:20;;;;;;;7.40;5.57;;;;;;;22.92;54.26;99983.44;5046876;28;20039;-24
2021/05/27 10:35:55;;;;;;;8.00;5.43;;;;;;;22.42;53.78;99992.31;5046770;28;20032;-24
2021/05/27 10:41:18;;;;;;;7.47;4.78;;;;;;;22.05;54.63;99985.84;5047680;28;20078;-24
2021/05/27 10:43:59;;;;;;;10.05;5.00;;;;;;;22.10;55.00;99970.59;5047777;28;20499;-24
2021/05/27 10:46:25;;;;;;;7.72;4.95;;;;;;;22.10;54.91;99965.16;5047510;28;20087;-24
2021/05/27 10:48:50;;;;;;;8.43;4.32;;;;;;;21.91;53.34;99966.00;5047599;28;20477;-24
2021/05/27 10:51:28;;;;;;;7.13;4.10;;;;;;;21.86;52.69;99957.94;5045874;28;20053;-24
2021/05/27 10:53:54;;;;;;;;;;;;;;;22.04;52.17;99948.94;5048166;28;20033;-24
2021/05/27 10:56:44;;;;;;;6.07;4.40;;;;;;;22.13;52.53;99942.81;5047199;28;19916;-24
2021/05/27 10:59:11;;;;;;;6.53;4.43;;;;;;;22.10;52.30;99944.22;5047508;28;20119;-24
2021/05/27 11:01:37;;;;;;;6.30;3.90;;;;;;;22.19;52.32;99949.75;5047536;28;20033;-26
2021/05/27 11:04:04;;;;;;;5.70;3.65;;;;;;;22.59;50.26;99937.34;5047598;28;20025;-25
2021/05/27 11:06:39;;;;;;;5.47;3.90;;;;;;;22.94;49.15;99931.50;5047108;28;20063;-24
2021/05/27 11:09:10;;;;;;;6.63;4.00;;;;;;;23.50;48.42;99957.47;5047386;28;20060;-25
2021/05/27 11:11:41;;;;;;;5.32;3.53;;;;;;;23.34;45.66;99956.22;5047108;28;20533;-24
2021/05/27 11:14:22;;;;;;;7.65;3.53;;;;;;;24.06;44.70;99949.88;5047173;28;20036;-24
2021/05/27 11:17:03;;;;;;;6.28;3.30;;;;;;;24.52;45.28;99945.13;5047173;28;20039;-24
2021/05/27 11:22:34;;;;;;;7.05;3.28;;;;;;;24.49;44.79;99932.13;5047006;28;20052;-24
2021/05/27 11:25:12;;;;;;;5.47;2.95;;;;;;;23.97;44.97;99930.78;5046928;28;20025;-24
2021/05/27 11:27:50;;;;;;;5.10;3.05;;;;;;;23.74;46.67;99905.47;5047221;28;20064;-24
2021/05/27 11:30:38;;;;;;;4.30;2.75;;;;;;;23.77;45.29;99914.94;5047092;28;20540;-24
2021/05/27 11:33:21;;;;;;;4.50;2.85;;;;;;;23.90;45.48;99913.25;5046967;28;20689;-24
2021/05/27 11:35:48;;;;;;;5.50;2.72;;;;;;;23.54;44.18;99893.16;5047267;28;20797;-24
2021/05/27 11:38:16;;;;;;;4.33;2.50;;;;;;;23.51;44.08;99912.00;5045684;28;20851;-25